createdAt,value
2018-11-21T00:01:28.167Z,7.20
2018-11-21T00:04:09.391Z,7.37
2018-11-21T00:06:37.808Z,7.97
2018-11-21T00:09:25.584Z,8.27
2018-11-21T00:12:06.348Z,7.83
2018-11-21T00:14:46.699Z,7.50
2018-11-21T00:17:27.191Z,7.13
2018-11-21T00:20:07.535Z,8.00
2018-11-21T00:22:48.615Z,9.10
2018-11-21T00:25:27.495Z,8.13
2018-11-21T00:27:55.868Z,8.47
2018-11-21T00:30:43.643Z,7.67
2018-11-21T00:33:23.959Z,7.07
2018-11-21T00:36:04.352Z,7.23
2018-11-21T00:38:45.383Z,8.23
2018-11-21T00:41:26.508Z,7.73
2018-11-21T00:44:07.704Z,7.87
2018-11-21T00:46:48.382Z,7.53
2018-11-21T00:49:29.011Z,7.03
2018-11-21T00:52:09.631Z,7.13
2018-11-21T00:54:50.746Z,8.93
2018-11-21T00:57:31.495Z,7.80
2018-11-21T01:00:12.793Z,8.00
2018-11-21T01:02:53.275Z,7.27
2018-11-21T01:05:32.620Z,6.90
2018-11-21T01:08:11.743Z,7.23
2018-11-21T01:10:59.551Z,7.53
2018-11-21T01:13:40.662Z,6.77
2018-11-21T01:16:21.814Z,7.73
2018-11-21T01:19:00.754Z,6.97
2018-11-21T01:21:48.826Z,6.43
2018-11-21T01:24:27.974Z,6.70
2018-11-21T01:27:06.974Z,7.63
2018-11-21T01:29:45.874Z,7.87
2018-11-21T01:32:26.214Z,7.53
2018-11-21T01:35:07.004Z,7.87
2018-11-21T01:37:47.582Z,8.33
2018-11-21T01:40:28.762Z,7.60
2018-11-21T01:43:09.554Z,7.87
2018-11-21T01:45:49.874Z,7.90
2018-11-21T01:48:30.234Z,7.57
2018-11-21T01:51:11.221Z,7.53
2018-11-21T01:53:52.274Z,6.80
2018-11-21T01:56:33.210Z,7.57
2018-11-21T01:59:14.173Z,7.57
2018-11-21T02:01:42.585Z,7.43
2018-11-21T02:04:30.437Z,7.33
2018-11-21T02:07:11.525Z,7.47
2018-11-21T02:09:52.708Z,6.53
2018-11-21T02:12:33.137Z,7.10
2018-11-21T02:15:13.402Z,7.20
2018-11-21T02:17:41.789Z,7.43
2018-11-21T02:20:29.561Z,6.93
2018-11-21T02:23:17.377Z,6.63
2018-11-21T02:25:45.753Z,7.33
2018-11-21T02:28:33.521Z,6.93
2018-11-21T02:31:21.307Z,8.20
2018-11-21T02:34:01.718Z,6.93
2018-11-21T02:36:42.881Z,7.20
2018-11-21T02:39:23.437Z,6.87
2018-11-21T02:42:03.698Z,7.20
2018-11-21T02:44:44.401Z,6.47
2018-11-21T02:47:24.969Z,7.40
2018-11-21T02:50:05.825Z,6.37
2018-11-21T02:52:46.257Z,6.87
2018-11-21T02:55:26.873Z,6.87
2018-11-21T02:58:07.416Z,6.83
2018-11-21T03:00:48.281Z,6.33
2018-11-21T03:03:16.700Z,7.43
2018-11-21T03:06:04.473Z,7.37
2018-11-21T03:08:45.136Z,5.80
2018-11-21T03:11:26.306Z,6.90
2018-11-21T03:14:07.001Z,7.17
2018-11-21T03:16:47.448Z,6.83
2018-11-21T03:19:28.728Z,5.53
2018-11-21T03:22:09.249Z,7.03
2018-11-21T03:24:49.572Z,6.90
2018-11-21T03:27:30.553Z,6.40
2018-11-21T03:30:12.010Z,6.90
2018-11-21T03:32:52.545Z,6.80
2018-11-21T03:35:33.652Z,6.90
2018-11-21T03:38:14.513Z,7.20
2018-11-21T03:40:55.033Z,6.57
2018-11-21T03:43:35.434Z,6.67
2018-11-21T03:46:16.124Z,7.03
2018-11-21T03:48:57.067Z,6.43
2018-11-21T03:51:38.361Z,6.67
2018-11-21T03:54:18.975Z,6.57
2018-11-21T03:56:59.325Z,6.60
2018-11-21T03:59:40.287Z,6.80
2018-11-21T04:02:21.487Z,6.83
2018-11-21T04:05:02.424Z,7.73
2018-11-21T04:07:41.336Z,6.57
2018-11-21T04:10:29.151Z,6.73
2018-11-21T04:13:07.972Z,7.83
2018-11-21T04:15:36.364Z,7.57
2018-11-21T04:18:24.136Z,7.83
2018-11-21T04:21:04.942Z,7.13
2018-11-21T04:23:46.163Z,7.40
2018-11-21T04:26:15.307Z,6.80
2018-11-21T04:29:03.140Z,7.27
2018-11-21T04:31:50.911Z,7.23
2018-11-21T04:34:31.747Z,7.13
2018-11-21T04:37:12.052Z,8.03
2018-11-21T04:39:52.831Z,6.87
2018-11-21T04:42:33.188Z,7.27
2018-11-21T04:45:14.339Z,7.27
2018-11-21T04:47:56.004Z,7.07
2018-11-21T04:50:36.629Z,7.97
2018-11-21T04:53:17.211Z,7.07
2018-11-21T04:55:58.524Z,7.60
2018-11-21T04:58:39.620Z,7.47
2018-11-21T05:01:08.044Z,8.57
2018-11-21T05:06:55.544Z,8.13
2018-11-21T05:09:35.972Z,7.67
2018-11-21T05:12:16.450Z,7.40
2018-11-21T05:14:56.782Z,7.37
2018-11-21T05:17:37.119Z,7.83
2018-11-21T05:20:17.435Z,7.40
2018-11-21T05:22:58.682Z,6.80
2018-11-21T05:25:27.114Z,7.87
2018-11-21T05:28:14.887Z,7.70
2018-11-21T05:30:55.916Z,7.63
2018-11-21T05:33:37.073Z,7.40
2018-11-21T05:36:17.660Z,6.93
2018-11-21T05:38:58.458Z,7.23
2018-11-21T05:41:39.441Z,7.50
2018-11-21T05:44:20.338Z,7.80
2018-11-21T05:47:01.482Z,8.00
2018-11-21T05:49:29.905Z,6.90
2018-11-21T05:52:17.678Z,7.60
2018-11-21T05:54:58.322Z,8.30
2018-11-21T05:57:39.566Z,7.13
2018-11-21T06:00:20.710Z,7.57
2018-11-21T06:03:01.991Z,7.23
2018-11-21T06:05:43.222Z,8.40
2018-11-21T06:08:23.538Z,8.30
2018-11-21T06:11:02.393Z,7.70
2018-11-21T06:13:30.806Z,8.00
2018-11-21T06:16:19.427Z,7.70
2018-11-21T06:19:07.430Z,6.67
2018-11-21T06:21:48.426Z,7.80
2018-11-21T06:24:29.418Z,8.83
2018-11-21T06:27:11.196Z,7.83
2018-11-21T06:29:50.814Z,7.27
2018-11-21T06:32:31.386Z,6.70
2018-11-21T06:35:12.209Z,7.43
2018-11-21T06:37:53.081Z,7.83
2018-11-21T06:40:32.017Z,7.63
2018-11-21T06:43:12.843Z,6.87
2018-11-21T06:45:53.320Z,6.93
2018-11-21T06:48:34.273Z,6.87
2018-11-21T06:51:14.689Z,7.20
2018-11-21T06:53:55.065Z,7.63
2018-11-21T06:56:35.625Z,7.33
2018-11-21T06:59:16.660Z,7.13
2018-11-21T07:01:57.168Z,7.10
2018-11-21T07:04:38.066Z,6.93
2018-11-21T07:07:18.668Z,8.07
2018-11-21T07:09:59.437Z,8.17
2018-11-21T07:12:27.857Z,8.13
2018-11-21T07:15:15.620Z,8.37
2018-11-21T07:17:56.309Z,8.50
2018-11-21T07:20:35.169Z,8.17
2018-11-21T07:23:16.113Z,8.03
2018-11-21T07:25:57.254Z,8.23
2018-11-21T07:28:37.768Z,8.30
2018-11-21T07:31:18.528Z,8.57
2018-11-21T07:33:59.168Z,7.90
2018-11-21T07:36:38.134Z,7.53
2018-11-21T07:39:25.912Z,7.90
2018-11-21T07:42:06.926Z,7.93
2018-11-21T07:44:35.337Z,8.43
2018-11-21T07:47:26.547Z,7.47
2018-11-21T07:50:04.007Z,7.27
2018-11-21T07:52:44.865Z,6.80
2018-11-21T07:55:26.072Z,7.47
2018-11-21T07:58:12.100Z,7.20
2018-11-21T08:01:11.555Z,8.23
2018-11-21T08:04:04.520Z,7.53
2018-11-21T08:07:10.788Z,7.93
2018-11-21T08:10:06.654Z,8.60
2018-11-21T08:13:01.436Z,6.77
2018-11-21T08:16:01.788Z,7.73
2018-11-21T08:22:15.635Z,8.97
2018-11-21T08:25:15.331Z,8.10
2018-11-21T08:28:22.284Z,8.73
2018-11-21T08:31:03.292Z,7.73
2018-11-21T08:33:44.462Z,7.80
2018-11-21T08:36:25.393Z,7.80
2018-11-21T08:39:06.652Z,8.77
2018-11-21T08:41:47.347Z,8.10
2018-11-21T08:44:26.184Z,7.90
2018-11-21T08:47:14.003Z,7.97
2018-11-21T08:49:42.651Z,8.60
2018-11-21T08:52:30.423Z,8.33
2018-11-21T08:55:18.243Z,8.13
2018-11-21T08:57:58.696Z,8.90
2018-11-21T09:00:39.367Z,8.40
2018-11-21T09:03:18.187Z,8.33
2018-11-21T09:05:46.573Z,8.70
2018-11-21T09:08:34.345Z,9.60
2018-11-21T09:11:15.171Z,7.83
2018-11-21T09:13:55.879Z,8.30
2018-11-21T09:16:34.313Z,8.43
2018-11-21T09:19:02.503Z,8.50
2018-11-21T09:21:50.339Z,7.97
2018-11-21T09:24:38.190Z,9.03
2018-11-21T09:27:25.967Z,8.23
2018-11-21T09:30:06.306Z,8.20
2018-11-21T09:32:47.476Z,8.73
2018-11-21T09:35:28.422Z,8.13
2018-11-21T09:38:09.022Z,8.73
2018-11-21T09:40:47.930Z,7.90
2018-11-21T09:43:16.367Z,8.43
2018-11-21T09:45:57.214Z,9.27
2018-11-21T09:48:36.174Z,7.70
2018-11-21T09:51:16.830Z,8.60
2018-11-21T09:53:57.634Z,8.43
2018-11-21T09:56:26.062Z,9.30
2018-11-21T09:59:13.855Z,9.27
2018-11-21T10:02:21.029Z,8.77
2018-11-21T10:05:01.518Z,9.27
2018-11-21T10:07:41.830Z,8.43
2018-11-21T10:10:22.358Z,8.40
2018-11-21T10:13:03.550Z,7.80
2018-11-21T10:15:43.953Z,9.37
2018-11-21T10:18:24.261Z,10.07
2018-11-21T10:20:52.647Z,8.57
2018-11-21T10:26:21.765Z,10.77
2018-11-21T10:28:50.889Z,9.37
2018-11-21T10:31:38.685Z,10.03
2018-11-21T10:34:19.402Z,11.57
2018-11-21T10:37:00.693Z,10.53
2018-11-21T10:39:41.277Z,11.67
2018-11-21T10:42:21.575Z,11.13
2018-11-21T10:45:01.959Z,10.07
2018-11-21T10:47:42.321Z,10.63
2018-11-21T10:50:23.225Z,10.40
2018-11-21T10:53:04.408Z,9.47
2018-11-21T10:55:45.342Z,11.00
2018-11-21T10:58:25.785Z,10.90
2018-11-21T11:01:25.726Z,10.03
2018-11-21T11:04:10.841Z,11.47
2018-11-21T11:07:08.700Z,11.43
2018-11-21T11:10:14.184Z,12.50
2018-11-21T11:13:08.937Z,12.10
2018-11-21T11:16:08.737Z,11.20
2018-11-21T11:18:57.669Z,10.63
2018-11-21T11:21:57.360Z,9.87
2018-11-21T11:24:57.200Z,10.40
2018-11-21T11:27:59.945Z,12.80
2018-11-21T11:30:59.840Z,11.27
2018-11-21T11:33:59.552Z,10.23
2018-11-21T11:36:51.472Z,10.70
2018-11-21T11:39:51.228Z,8.90
2018-11-21T11:42:51.128Z,10.87
2018-11-21T11:45:51.108Z,9.03
2018-11-21T11:48:50.935Z,9.70
2018-11-21T11:51:50.903Z,8.73
2018-11-21T11:54:50.879Z,10.73
2018-11-21T11:57:38.444Z,10.27
2018-11-21T12:00:45.368Z,9.80
2018-11-21T12:03:57.757Z,10.57
2018-11-21T12:06:52.251Z,10.13
2018-11-21T12:09:51.903Z,10.50
2018-11-21T12:12:51.432Z,9.90
2018-11-21T12:15:54.135Z,10.30
2018-11-21T12:18:53.755Z,9.57
2018-11-21T12:24:55.563Z,10.10
2018-11-21T12:31:00.852Z,9.57
2018-11-21T12:34:01.051Z,9.40
2018-11-21T12:37:01.119Z,9.40
2018-11-21T12:39:48.638Z,9.20
2018-11-21T12:42:55.587Z,9.67
2018-11-21T12:45:51.635Z,10.57
2018-11-21T12:48:51.295Z,10.37
2018-11-21T12:51:38.815Z,10.60
2018-11-21T12:54:45.773Z,9.87
2018-11-21T12:57:52.678Z,10.83
2018-11-21T13:00:52.151Z,10.17
2018-11-21T13:03:52.362Z,11.20
2018-11-21T13:10:10.278Z,10.77
2018-11-21T13:13:04.730Z,10.57
2018-11-21T13:15:52.674Z,10.97
2018-11-21T13:18:53.230Z,10.80
2018-11-21T13:21:40.746Z,10.53
2018-11-21T13:24:47.678Z,10.87
2018-11-21T13:27:53.537Z,12.37
2018-11-21T13:30:52.982Z,11.33
2018-11-21T13:33:52.453Z,11.77
2018-11-21T13:36:58.194Z,12.47
2018-11-21T13:39:57.637Z,12.23
2018-11-21T13:42:57.550Z,11.77
2018-11-21T13:45:51.858Z,11.70
2018-11-21T13:48:55.605Z,11.53
2018-11-21T13:51:54.134Z,11.83
2018-11-21T13:54:53.802Z,11.23
2018-11-21T13:57:34.910Z,10.90
2018-11-21T14:00:15.833Z,12.93
2018-11-21T14:02:57.093Z,13.20
2018-11-21T14:05:37.645Z,11.97
2018-11-21T14:08:18.605Z,10.80
2018-11-21T14:10:59.210Z,14.33
2018-11-21T14:13:39.594Z,13.53
2018-11-21T14:16:19.889Z,13.07
2018-11-21T14:19:01.030Z,14.53
2018-11-21T14:21:42.097Z,14.60
2018-11-21T14:24:22.410Z,15.47
2018-11-21T14:27:03.509Z,14.43
2018-11-21T14:29:31.937Z,14.67
2018-11-21T14:32:19.721Z,16.30
2018-11-21T14:35:00.102Z,12.80
2018-11-21T14:37:40.715Z,13.37
2018-11-21T14:40:21.147Z,17.43
2018-11-21T14:43:02.057Z,14.07
2018-11-21T14:45:43.077Z,12.67
2018-11-21T14:48:23.433Z,13.47
2018-11-21T14:51:03.881Z,13.30
2018-11-21T14:53:44.937Z,17.00
2018-11-21T14:56:13.345Z,12.93
2018-11-21T14:59:01.125Z,14.70
2018-11-21T15:01:42.043Z,29.07
2018-11-21T15:04:22.589Z,48.67
2018-11-21T15:07:03.093Z,16.43
2018-11-21T15:09:42.308Z,18.53
2018-11-21T15:12:22.893Z,12.33
2018-11-21T15:15:03.953Z,15.00
2018-11-21T15:17:45.080Z,12.07
2018-11-21T15:20:25.900Z,12.27
2018-11-21T15:22:54.341Z,13.20
2018-11-21T15:25:42.120Z,12.80
2018-11-21T15:28:29.908Z,12.73
2018-11-21T15:31:11.132Z,12.10
2018-11-21T15:33:52.256Z,13.10
2018-11-21T15:36:32.908Z,11.33
2018-11-21T15:39:01.320Z,10.83
2018-11-21T15:41:49.092Z,11.67
2018-11-21T15:44:29.800Z,10.70
2018-11-21T15:47:10.360Z,10.80
2018-11-21T15:49:50.972Z,11.80
2018-11-21T15:52:31.664Z,11.70
2018-11-21T15:55:13.995Z,12.20
2018-11-21T15:57:54.744Z,12.17
2018-11-21T16:00:35.987Z,11.70
2018-11-21T16:03:06.136Z,11.13
2018-11-21T16:05:53.903Z,11.20
2018-11-21T16:08:41.716Z,12.17
2018-11-21T16:11:22.252Z,12.30
2018-11-21T16:14:02.729Z,12.87
2018-11-21T16:16:43.447Z,12.03
2018-11-21T16:19:11.863Z,12.53
2018-11-21T16:21:59.651Z,12.23
2018-11-21T16:24:40.619Z,12.73
2018-11-21T16:27:21.428Z,10.37
2018-11-21T16:30:01.787Z,11.37
2018-11-21T16:32:43.071Z,11.13
2018-11-21T16:35:24.011Z,11.57
2018-11-21T16:38:05.219Z,11.20
2018-11-21T16:40:44.119Z,10.93
2018-11-21T16:43:24.855Z,12.63
2018-11-21T16:45:55.080Z,12.00
2018-11-21T16:48:42.875Z,12.40
2018-11-21T16:51:30.668Z,11.57
2018-11-21T16:54:09.552Z,13.10
2018-11-21T16:56:57.335Z,11.63
2018-11-21T16:59:38.215Z,12.13
2018-11-21T17:02:18.759Z,11.73
2018-11-21T17:04:59.327Z,11.73
2018-11-21T17:07:39.945Z,11.83
2018-11-21T17:10:22.143Z,11.87
2018-11-21T17:13:02.938Z,12.33
2018-11-21T17:15:43.266Z,12.37
2018-11-21T17:18:23.618Z,12.20
2018-11-21T17:21:04.561Z,15.00
2018-11-21T17:23:44.783Z,13.00
2018-11-21T17:26:25.190Z,12.30
2018-11-21T17:29:08.804Z,12.57
2018-11-21T17:31:46.038Z,12.73
2018-11-21T17:34:24.991Z,13.77
2018-11-21T17:37:05.902Z,14.50
2018-11-21T17:39:46.474Z,12.27
2018-11-21T17:42:27.270Z,13.20
2018-11-21T17:45:08.030Z,12.60
2018-11-21T17:47:36.490Z,13.13
2018-11-21T17:50:25.066Z,13.57
2018-11-21T17:53:06.787Z,13.50
2018-11-21T17:55:47.094Z,15.10
2018-11-21T17:58:15.510Z,14.13
2018-11-21T18:01:03.322Z,16.27
2018-11-21T18:03:44.362Z,15.50
2018-11-21T18:06:24.749Z,23.87
2018-11-21T18:11:59.889Z,30.60
2018-11-21T18:17:19.739Z,17.77
2018-11-21T18:20:00.565Z,16.77
2018-11-21T18:22:42.171Z,17.60
2018-11-21T18:25:31.394Z,16.30
2018-11-21T18:28:12.489Z,16.13
2018-11-21T18:30:53.045Z,16.00
2018-11-21T18:33:31.975Z,15.67
2018-11-21T18:36:13.054Z,17.03
2018-11-21T18:38:51.875Z,14.80
2018-11-21T18:41:39.829Z,16.03
2018-11-21T18:44:20.349Z,17.10
2018-11-21T18:47:01.189Z,14.40
2018-11-21T18:49:41.977Z,15.87
2018-11-21T18:52:22.497Z,20.97
2018-11-21T18:55:03.720Z,21.17
2018-11-21T18:57:44.361Z,19.30
2018-11-21T19:00:24.669Z,15.57
2018-11-21T19:02:53.037Z,16.13
2018-11-21T19:05:40.801Z,15.00
2018-11-21T19:08:28.612Z,14.47
2018-11-21T19:11:09.377Z,13.17
2018-11-21T19:13:52.728Z,13.07
2018-11-21T19:16:33.502Z,13.20
2018-11-21T19:19:14.221Z,13.37
2018-11-21T19:21:52.997Z,14.83
2018-11-21T19:24:40.805Z,13.63
2018-11-21T19:27:21.468Z,17.33
2018-11-21T19:30:02.592Z,33.13
2018-11-21T19:32:43.776Z,21.00
2018-11-21T19:35:24.681Z,25.37
2018-11-21T19:38:05.761Z,22.80
2018-11-21T19:40:46.084Z,18.73
2018-11-21T19:43:26.396Z,16.97
2018-11-21T19:46:06.852Z,13.37
2018-11-21T19:48:47.544Z,13.50
2018-11-21T19:51:15.989Z,12.83
2018-11-21T19:53:44.335Z,14.03
2018-11-21T19:56:32.232Z,15.07
2018-11-21T19:59:20.040Z,13.17
2018-11-21T20:02:00.360Z,13.07
2018-11-21T20:04:41.228Z,13.30
2018-11-21T20:07:21.792Z,14.53
2018-11-21T20:10:02.260Z,14.80
2018-11-21T20:12:43.329Z,13.30
2018-11-21T20:15:24.895Z,12.97
2018-11-21T20:18:05.849Z,12.23
2018-11-21T20:20:46.464Z,13.63
2018-11-21T20:23:25.376Z,12.30
2018-11-21T20:26:05.996Z,12.47
2018-11-21T20:28:44.951Z,13.33
2018-11-21T20:31:25.795Z,12.07
2018-11-21T20:34:06.920Z,13.27
2018-11-21T20:36:47.592Z,16.47
2018-11-21T20:39:28.591Z,18.70
2018-11-21T20:42:07.471Z,15.40
2018-11-21T20:44:47.823Z,13.90
2018-11-21T20:47:16.239Z,13.97
2018-11-21T20:50:04.067Z,14.90
2018-11-21T20:52:45.450Z,13.50
2018-11-21T20:55:27.963Z,13.33
2018-11-21T20:58:08.848Z,13.57
2018-11-21T21:00:49.910Z,13.03
2018-11-21T21:03:30.928Z,14.63
2018-11-21T21:06:12.094Z,14.03
2018-11-21T21:08:52.984Z,13.37
2018-11-21T21:11:34.122Z,13.13
2018-11-21T21:14:14.727Z,13.87
2018-11-21T21:16:53.590Z,14.73
2018-11-21T21:19:41.410Z,13.80
2018-11-21T21:22:22.364Z,13.70
2018-11-21T21:24:50.789Z,13.93
2018-11-21T21:27:38.754Z,13.37
2018-11-21T21:30:21.131Z,13.13
2018-11-21T21:33:01.570Z,13.20
2018-11-21T21:35:31.459Z,13.27
2018-11-21T21:37:59.862Z,13.63
2018-11-21T21:40:47.638Z,14.17
2018-11-21T21:43:37.486Z,14.23
2018-11-21T21:46:18.062Z,14.43
2018-11-21T21:48:59.769Z,14.67
2018-11-21T21:51:40.095Z,15.43
2018-11-21T21:54:20.594Z,15.50
2018-11-21T21:57:03.975Z,14.13
2018-11-21T21:59:29.583Z,13.63
2018-11-21T22:02:17.354Z,15.13
2018-11-21T22:05:06.097Z,13.43
2018-11-21T22:07:46.350Z,14.50
2018-11-21T22:10:15.853Z,13.03
2018-11-21T22:13:03.654Z,13.93
2018-11-21T22:15:51.425Z,14.50
2018-11-21T22:18:32.070Z,13.23
2018-11-21T22:21:12.483Z,13.13
2018-11-21T22:23:52.801Z,13.90
2018-11-21T22:26:21.357Z,14.63
2018-11-21T22:29:09.146Z,15.03
2018-11-21T22:31:56.901Z,14.10
2018-11-21T22:34:37.373Z,14.67
2018-11-21T22:37:17.913Z,14.10
2018-11-21T22:39:59.093Z,13.80
2018-11-21T22:42:39.929Z,15.43
2018-11-21T22:45:21.853Z,15.90
2018-11-21T22:48:02.569Z,15.30
2018-11-21T22:50:43.584Z,14.00
2018-11-21T22:53:24.297Z,13.83
2018-11-21T22:56:04.985Z,13.63
2018-11-21T22:58:45.365Z,13.37
2018-11-21T23:01:13.776Z,12.97
2018-11-21T23:04:01.557Z,13.70
2018-11-21T23:06:42.473Z,14.00
2018-11-21T23:09:12.121Z,14.00
2018-11-21T23:11:59.907Z,13.97
2018-11-21T23:14:47.720Z,12.30
2018-11-21T23:17:28.789Z,13.83
2018-11-21T23:20:10.888Z,11.90
2018-11-21T23:22:51.995Z,12.37
2018-11-21T23:25:33.021Z,11.73
2018-11-21T23:28:11.868Z,12.80
2018-11-21T23:30:59.696Z,12.53
2018-11-21T23:33:28.089Z,11.93
2018-11-21T23:36:15.852Z,12.60
2018-11-21T23:39:05.393Z,13.50
2018-11-21T23:41:45.881Z,13.13
2018-11-21T23:44:24.836Z,11.77
2018-11-21T23:47:05.829Z,12.87
2018-11-21T23:49:46.884Z,13.77
2018-11-21T23:52:27.304Z,12.13
2018-11-21T23:55:07.804Z,12.60
2018-11-21T23:57:48.560Z,13.00
